Time;durP1;ratioP1;P1;durP2;ratioP2;P2;SDS_P1;SDS_P2;PMS_P1;PMS_P2;Temp;Humidity;BMP_temperature;BMP_pressure;BME280_temperature;BME280_humidity;BME280_pressure;Samples;Min_cycle;Max_cycle;Signal;HPM_P1;HPM_P2
2021/12/20 00:00:17;;;;;;;4.07;0.85;;;7.30;95.90;;;;;;2081018;28;20408;-91
2021/12/20 00:01:18;;;;;;;2.70;0.75;;;7.30;95.90;;;;;;2074217;28;20546;-92
2021/12/20 00:02:19;;;;;;;5.10;0.98;;;7.30;95.90;;;;;;2073883;28;20034;-92
2021/12/20 00:03:19;;;;;;;4.13;0.60;;;7.30;95.90;;;;;;2071008;28;20061;-91
2021/12/20 00:04:20;;;;;;;3.42;0.82;;;7.30;95.90;;;;;;2064863;28;20046;-92
2021/12/20 00:05:21;;;;;;;3.22;0.70;;;7.30;95.90;;;;;;2059561;28;20052;-91
2021/12/20 00:06:22;;;;;;;4.75;0.75;;;7.30;95.90;;;;;;2073576;28;20045;-91
2021/12/20 00:07:23;;;;;;;2.60;0.60;;;7.30;95.90;;;;;;2082323;28;20064;-90
2021/12/20 00:08:23;;;;;;;5.05;0.88;;;7.20;95.90;;;;;;2076925;28;20033;-90
2021/12/20 00:09:24;;;;;;;3.88;0.80;;;7.30;95.90;;;;;;2080193;28;20025;-91
2021/12/20 00:10:25;;;;;;;3.92;0.65;;;7.20;95.90;;;;;;2071912;28;20028;-92
2021/12/20 00:11:26;;;;;;;2.92;0.70;;;7.30;95.90;;;;;;2065295;28;20034;-92
2021/12/20 00:12:26;;;;;;;3.42;0.70;;;7.20;95.90;;;;;;2057134;28;20062;-92
2021/12/20 00:13:27;;;;;;;4.32;0.73;;;7.20;95.90;;;;;;2064867;28;20028;-92
2021/12/20 00:14:28;;;;;;;3.00;0.77;;;7.30;95.90;;;;;;2072893;28;20033;-91
2021/12/20 00:15:28;;;;;;;2.60;0.60;;;7.20;95.90;;;;;;2078007;28;20037;-91
2021/12/20 00:16:29;;;;;;;5.65;1.00;;;7.30;95.90;;;;;;2073552;28;20033;-90
2021/12/20 00:17:30;;;;;;;3.95;0.70;;;7.30;95.90;;;;;;2049434;28;20035;-91
2021/12/20 00:18:30;;;;;;;7.25;0.93;;;7.20;96.10;;;;;;2060935;28;20034;-91
2021/12/20 00:19:31;;;;;;;3.50;0.70;;;7.30;95.80;;;;;;2074346;28;20029;-91
2021/12/20 00:20:31;;;;;;;6.55;0.90;;;7.20;95.80;;;;;;2080933;28;20089;-91
2021/12/20 00:21:32;;;;;;;3.67;0.63;;;7.20;95.80;;;;;;2065142;28;20150;-91
2021/12/20 00:22:33;;;;;;;4.70;0.95;;;7.20;95.80;;;;;;2057086;28;20045;-91
2021/12/20 00:23:33;;;;;;;5.40;0.80;;;7.20;95.80;;;;;;2063122;28;20042;-92
2021/12/20 00:24:34;;;;;;;4.90;0.93;;;7.20;95.80;;;;;;2057005;28;20045;-92
2021/12/20 00:25:35;;;;;;;4.50;1.10;;;7.20;95.80;;;;;;2059002;28;20490;-91
2021/12/20 00:26:35;;;;;;;3.65;0.80;;;7.20;95.80;;;;;;2061886;28;20468;-91
2021/12/20 00:27:37;;;;;;;4.60;0.90;;;7.20;95.80;;;;;;2065927;28;20050;-92
2021/12/20 00:28:38;;;;;;;5.18;0.90;;;7.20;95.80;;;;;;2082852;28;20025;-91
2021/12/20 00:29:38;;;;;;;5.13;0.75;;;7.20;95.80;;;;;;2084903;28;20116;-91
2021/12/20 00:30:40;;;;;;;4.35;0.70;;;7.20;95.80;;;;;;2060436;28;20035;-91
2021/12/20 00:31:40;;;;;;;3.33;0.70;;;7.20;95.80;;;;;;2059005;28;20070;-87
2021/12/20 00:32:41;;;;;;;5.40;0.88;;;7.20;95.80;;;;;;2067298;28;20029;-91
2021/12/20 00:33:42;;;;;;;6.13;0.68;;;7.20;95.80;;;;;;2059395;28;20094;-90
2021/12/20 00:34:43;;;;;;;4.32;0.90;;;7.20;95.80;;;;;;2080397;28;20037;-91
2021/12/20 00:35:44;;;;;;;5.50;0.77;;;7.20;96.00;;;;;;2081706;28;20158;-90
2021/12/20 00:36:45;;;;;;;3.58;0.70;;;7.10;95.70;;;;;;2066220;28;20042;-90
2021/12/20 00:40:24;;;;;;;4.88;1.13;;;7.10;95.70;;;;;;2080564;28;20128;-91
2021/12/20 00:41:25;;;;;;;5.90;1.10;;;7.10;95.60;;;;;;2081867;28;20021;-92
2021/12/20 00:42:25;;;;;;;7.70;1.20;;;7.10;95.60;;;;;;2082192;28;20400;-92
2021/12/20 00:43:26;;;;;;;4.43;0.90;;;7.10;95.60;;;;;;2073235;28;20165;-92
2021/12/20 00:44:27;;;;;;;6.00;1.17;;;7.10;95.60;;;;;;2063460;28;20560;-91
2021/12/20 00:45:33;;;;;;;3.50;0.75;;;7.10;95.60;;;;;;2073721;28;20036;-92
2021/12/20 00:46:33;;;;;;;5.10;0.90;;;7.10;95.60;;;;;;2086089;28;20045;-91
2021/12/20 00:47:34;;;;;;;3.05;0.70;;;7.10;95.60;;;;;;2093586;28;20067;-88
2021/12/20 00:48:35;;;;;;;6.10;1.48;;;7.10;95.60;;;;;;2079609;28;20057;-88
2021/12/20 00:49:36;;;;;;;4.40;0.93;;;7.00;95.60;;;;;;2080115;28;20034;-88
2021/12/20 00:50:39;;;;;;;5.40;1.27;;;7.00;95.60;;;;;;2075584;28;20030;-88
2021/12/20 00:51:39;;;;;;;4.75;1.05;;;7.10;95.60;;;;;;2080465;28;20030;-87
2021/12/20 00:52:41;;;;;;;5.70;1.27;;;7.10;95.60;;;;;;2087638;28;20065;-88
2021/12/20 00:53:42;;;;;;;6.72;1.23;;;7.00;95.50;;;;;;2088247;28;20014;-88
2021/12/20 00:54:42;;;;;;;3.58;0.77;;;7.00;95.50;;;;;;2082571;28;20492;-92
2021/12/20 00:55:44;;;;;;;6.20;1.23;;;7.00;95.50;;;;;;2065136;28;20027;-91
2021/12/20 00:56:44;;;;;;;4.50;1.00;;;7.10;95.50;;;;;;2057246;28;20125;-92
2021/12/20 00:57:50;;;;;;;4.97;0.82;;;7.00;95.50;;;;;;2072414;28;20571;-91
2021/12/20 00:58:51;;;;;;;4.90;0.88;;;7.00;95.50;;;;;;2076867;28;20049;-92
2021/12/20 00:59:52;;;;;;;4.95;1.30;;;7.00;95.50;;;;;;2062147;28;20473;-91
2021/12/20 01:00:52;;;;;;;5.35;1.00;;;7.00;95.40;;;;;;2056202;28;20027;-90
2021/12/20 01:01:53;;;;;;;4.93;0.77;;;7.00;95.40;;;;;;2073949;28;20040;-90
2021/12/20 01:02:55;;;;;;;6.28;1.15;;;7.00;95.40;;;;;;2078181;28;20033;-91
2021/12/20 01:03:55;;;;;;;4.70;0.90;;;7.00;95.40;;;;;;2073302;28;20118;-91
2021/12/20 01:04:56;;;;;;;5.20;0.98;;;7.00;95.40;;;;;;2056807;28;20038;-91
2021/12/20 01:05:58;;;;;;;5.00;1.10;;;7.00;95.40;;;;;;2064832;28;20031;-92
2021/12/20 01:06:59;;;;;;;4.35;0.85;;;7.00;95.40;;;;;;2065046;28;20037;-91
2021/12/20 01:08:02;;;;;;;5.47;0.90;;;7.00;95.40;;;;;;2065321;28;20026;-91
2021/12/20 01:09:03;;;;;;;4.40;1.10;;;7.00;95.30;;;;;;2070885;28;20124;-90
2021/12/20 01:10:08;;;;;;;6.40;1.20;;;7.00;95.30;;;;;;2062207;28;20018;-90
2021/12/20 01:11:09;;;;;;;3.85;0.80;;;7.00;95.30;;;;;;2074985;28;20026;-91
2021/12/20 01:12:16;;;;;;;5.95;0.90;;;7.00;95.30;;;;;;2070851;28;20025;-91
2021/12/20 01:13:20;;;;;;;4.47;0.75;;;7.00;95.30;;;;;;2077947;28;20022;-91
2021/12/20 01:14:27;;;;;;;6.05;0.77;;;7.00;95.30;;;;;;2088224;28;20096;-91
2021/12/20 01:15:38;;;;;;;6.85;1.00;;;7.00;95.30;;;;;;2070290;28;20033;-91
2021/12/20 01:16:38;;;;;;;4.45;0.80;;;7.00;95.20;;;;;;2073190;28;20030;-91
2021/12/20 01:17:39;;;;;;;4.45;0.98;;;7.00;95.20;;;;;;2082244;28;20037;-91
2021/12/20 01:18:40;;;;;;;6.68;1.27;;;6.90;95.20;;;;;;2082235;28;20025;-91
2021/12/20 01:19:40;;;;;;;4.78;1.30;;;6.90;95.20;;;;;;2076276;28;20022;-92
2021/12/20 01:20:42;;;;;;;4.63;0.90;;;6.90;95.20;;;;;;2079023;28;20026;-91
2021/12/20 01:21:43;;;;;;;6.03;0.95;;;6.90;95.20;;;;;;2074379;28;20033;-91
2021/12/20 01:22:45;;;;;;;4.70;1.05;;;7.00;95.20;;;;;;2074268;28;20424;-90
2021/12/20 01:23:46;;;;;;;6.10;0.88;;;7.00;95.20;;;;;;2082819;28;20029;-91
2021/12/20 01:24:46;;;;;;;7.60;1.15;;;7.00;95.20;;;;;;2063594;28;20030;-92
2021/12/20 01:25:47;;;;;;;5.63;1.10;;;6.90;95.40;;;;;;2058748;28;20086;-91
2021/12/20 01:26:48;;;;;;;4.53;0.90;;;6.90;95.20;;;;;;2074951;28;20029;-91
2021/12/20 01:27:49;;;;;;;4.18;0.90;;;7.00;95.50;;;;;;2082835;28;20542;-91
2021/12/20 01:28:50;;;;;;;3.38;0.95;;;7.00;95.20;;;;;;2075082;28;20030;-91
2021/12/20 01:29:51;;;;;;;6.05;1.27;;;7.00;95.20;;;;;;2067127;28;20062;-91
2021/12/20 01:30:52;;;;;;;4.55;1.00;;;7.00;95.20;;;;;;2066719;28;20585;-91
2021/12/20 01:31:52;;;;;;;4.53;0.93;;;6.90;95.20;;;;;;2066431;28;20034;-91
2021/12/20 01:32:54;;;;;;;5.10;0.90;;;7.00;95.20;;;;;;2074384;28;20108;-91
2021/12/20 01:33:54;;;;;;;7.30;1.10;;;7.00;95.20;;;;;;2082328;28;20072;-91
2021/12/20 01:34:55;;;;;;;4.50;0.80;;;7.00;95.20;;;;;;2075094;28;20101;-91
2021/12/20 01:35:56;;;;;;;8.25;1.00;;;7.00;95.20;;;;;;2066826;28;20112;-91
2021/12/20 01:36:57;;;;;;;4.45;0.85;;;6.90;95.20;;;;;;2059696;28;20031;-90
2021/12/20 01:37:57;;;;;;;4.30;0.93;;;6.90;95.40;;;;;;2076982;28;20014;-88
2021/12/20 01:38:58;;;;;;;4.50;0.70;;;7.00;95.20;;;;;;2089002;28;20022;-84
2021/12/20 01:39:59;;;;;;;5.65;1.10;;;7.00;95.20;;;;;;2092613;28;20009;-90
2021/12/20 01:41:00;;;;;;;6.35;1.00;;;7.00;95.20;;;;;;2084816;28;21199;-89
2021/12/20 01:42:04;;;;;;;5.15;0.88;;;6.90;95.10;;;;;;2076058;28;20050;-91
2021/12/20 01:43:08;;;;;;;6.60;1.10;;;6.90;95.10;;;;;;2079356;28;20023;-90
2021/12/20 01:44:11;;;;;;;6.35;0.88;;;6.90;95.10;;;;;;2077990;28;20477;-92
2021/12/20 01:45:17;;;;;;;6.10;1.23;;;6.90;95.40;;;;;;2074695;28;20026;-90
2021/12/20 01:46:18;;;;;;;8.50;1.23;;;6.90;95.20;;;;;;2067371;28;20539;-91
2021/12/20 01:47:18;;;;;;;5.35;1.00;;;6.90;95.10;;;;;;2057162;28;20125;-92
2021/12/20 01:48:21;;;;;;;7.63;1.38;;;7.00;95.10;;;;;;2040474;29;20060;-91
2021/12/20 01:49:21;;;;;;;6.05;0.93;;;6.90;95.10;;;;;;2058910;28;20035;-92
2021/12/20 01:50:41;;;;;;;6.35;0.93;;;6.90;95.10;;;;;;2067184;28;20042;-92
2021/12/20 01:51:51;;;;;;;7.13;1.08;;;6.90;95.10;;;;;;2073715;28;20112;-91
2021/12/20 01:52:52;;;;;;;;;;;6.90;95.10;;;;;;2078956;28;20144;-91
2021/12/20 01:53:52;;;;;;;4.25;0.90;;;6.90;95.10;;;;;;2075349;28;19913;-91
2021/12/20 01:54:53;;;;;;;5.50;1.25;;;6.90;95.00;;;;;;2077145;28;20037;-91
2021/12/20 01:55:56;;;;;;;7.38;1.00;;;6.90;95.00;;;;;;2069412;28;20078;-90
2021/12/20 01:56:57;;;;;;;4.70;0.80;;;6.90;95.00;;;;;;2074695;28;20492;-91
2021/12/20 01:57:57;;;;;;;6.65;1.10;;;6.90;95.00;;;;;;2085020;28;20033;-90
2021/12/20 01:59:03;;;;;;;4.18;1.02;;;6.90;95.10;;;;;;2075244;28;20132;-91
2021/12/20 02:00:08;;;;;;;3.72;0.80;;;6.80;95.10;;;;;;2073003;28;20104;-91
2021/12/20 02:02:09;;;;;;;9.30;1.83;;;6.90;95.10;;;;;;2078175;28;20021;-91
2021/12/20 02:03:12;;;;;;;4.65;0.82;;;6.80;95.00;;;;;;2077073;28;20026;-92
2021/12/20 02:04:13;;;;;;;6.55;1.08;;;6.90;95.00;;;;;;2083109;28;20033;-91
2021/12/20 02:05:28;;;;;;;9.70;1.15;;;6.80;95.00;;;;;;2078062;28;20021;-91
2021/12/20 02:07:51;;;;;;;4.82;0.80;;;6.90;95.00;;;;;;2083557;28;20515;-91
2021/12/20 02:08:52;;;;;;;5.13;0.85;;;6.80;95.00;;;;;;2079180;28;20079;-91
2021/12/20 02:09:52;;;;;;;6.38;0.98;;;6.80;95.00;;;;;;2084566;28;20079;-90
2021/12/20 02:10:59;;;;;;;3.55;0.85;;;6.80;95.00;;;;;;2084765;28;20025;-92
2021/12/20 02:12:00;;;;;;;5.32;1.00;;;6.80;95.00;;;;;;2075478;28;20059;-91
2021/12/20 02:13:01;;;;;;;5.60;1.00;;;6.80;95.00;;;;;;2080839;28;20402;-91
2021/12/20 02:14:02;;;;;;;6.00;1.00;;;6.80;95.00;;;;;;2074785;28;20025;-91
2021/12/20 02:15:03;;;;;;;6.22;1.25;;;6.80;95.00;;;;;;2074537;28;20432;-92
2021/12/20 02:16:04;;;;;;;5.38;0.70;;;6.80;95.00;;;;;;2066086;28;20040;-91
2021/12/20 02:17:05;;;;;;;7.72;0.95;;;6.80;95.00;;;;;;2077628;28;20041;-92
2021/12/20 02:18:06;;;;;;;6.35;1.40;;;6.80;95.00;;;;;;2082978;28;20582;-90
2021/12/20 02:19:13;;;;;;;6.68;1.35;;;6.80;95.30;;;;;;2074460;28;20022;-91
2021/12/20 02:20:43;;;;;;;5.65;1.02;;;6.80;95.00;;;;;;2081053;28;20029;-91
2021/12/20 02:21:45;;;;;;;5.43;1.00;;;6.80;95.00;;;;;;2076318;28;20041;-91
2021/12/20 02:22:46;;;;;;;6.70;1.27;;;6.80;95.00;;;;;;2090450;28;20025;-91
2021/12/20 02:23:47;;;;;;;4.38;0.80;;;6.80;95.00;;;;;;2074150;28;20087;-91
2021/12/20 02:24:48;;;;;;;5.00;0.82;;;6.80;95.00;;;;;;2066443;28;20034;-91
2021/12/20 02:25:49;;;;;;;6.80;1.20;;;6.80;95.00;;;;;;2062052;28;20437;-91
2021/12/20 02:26:50;;;;;;;6.82;1.30;;;6.80;95.00;;;;;;2050207;28;20220;-91
2021/12/20 02:27:51;;;;;;;5.68;1.25;;;6.80;95.00;;;;;;2066193;28;20038;-90
2021/12/20 02:28:54;;;;;;;5.30;0.90;;;6.80;95.00;;;;;;2074269;28;20022;-92
2021/12/20 02:30:09;;;;;;;5.25;0.88;;;6.80;95.00;;;;;;2066071;28;20117;-92
2021/12/20 02:37:28;;;;;;;5.93;1.05;;;6.70;95.00;;;;;;2077133;28;20077;-91
2021/12/20 02:38:29;;;;;;;6.03;1.33;;;6.70;95.00;;;;;;2057542;28;20034;-92
2021/12/20 02:39:31;;;;;;;4.72;1.13;;;6.70;95.00;;;;;;2066443;28;20019;-89
2021/12/20 02:40:31;;;;;;;4.88;0.90;;;6.70;95.00;;;;;;2078234;28;20018;-89
2021/12/20 02:41:33;;;;;;;5.97;1.15;;;6.70;95.00;;;;;;2086204;28;20038;-89
2021/12/20 02:42:36;;;;;;;6.68;1.00;;;6.70;95.00;;;;;;2081053;28;20034;-88
2021/12/20 02:43:41;;;;;;;8.00;1.30;;;6.70;95.00;;;;;;2078114;28;20018;-89
2021/12/20 02:44:58;;;;;;;6.15;0.98;;;6.70;94.90;;;;;;2085131;28;20017;-88
2021/12/20 02:46:03;;;;;;;4.72;0.88;;;6.70;94.90;;;;;;2086764;28;20044;-88
2021/12/20 02:47:08;;;;;;;6.32;1.00;;;6.70;94.90;;;;;;2085253;28;20041;-92
2021/12/20 02:48:09;;;;;;;6.45;0.95;;;6.70;94.90;;;;;;2086221;28;20114;-92
2021/12/20 02:49:14;;;;;;;5.10;0.98;;;6.70;94.90;;;;;;2074506;28;20034;-92
2021/12/20 02:50:16;;;;;;;4.80;0.90;;;6.70;94.90;;;;;;2074919;28;20018;-92
2021/12/20 02:51:16;;;;;;;6.70;1.15;;;6.70;94.90;;;;;;2066003;28;20027;-91
2021/12/20 02:52:17;;;;;;;8.23;1.48;;;6.70;95.20;;;;;;2057846;28;20019;-92
2021/12/20 02:53:17;;;;;;;4.63;0.80;;;6.70;94.90;;;;;;2050057;28;20023;-91
2021/12/20 02:54:21;;;;;;;7.05;1.48;;;6.70;94.90;;;;;;2049249;28;20031;-92
2021/12/20 02:55:21;;;;;;;5.13;0.90;;;6.70;94.90;;;;;;2076564;28;20129;-92
2021/12/20 02:56:22;;;;;;;4.90;1.00;;;6.70;94.90;;;;;;2084547;28;20029;-91
2021/12/20 02:57:23;;;;;;;6.13;1.10;;;6.70;94.90;;;;;;2076799;28;20084;-91
2021/12/20 02:58:24;;;;;;;5.63;1.13;;;6.70;94.90;;;;;;2082161;28;20017;-92
2021/12/20 02:59:25;;;;;;;4.68;1.30;;;6.70;94.90;;;;;;2083997;28;20029;-91
2021/12/20 03:00:25;;;;;;;3.47;0.80;;;6.70;94.90;;;;;;2092483;28;20022;-91
2021/12/20 03:01:26;;;;;;;6.38;1.17;;;6.70;94.90;;;;;;2075935;28;20029;-92
2021/12/20 03:02:28;;;;;;;8.40;1.45;;;6.70;94.90;;;;;;2061637;28;20022;-91
2021/12/20 03:03:28;;;;;;;5.82;1.08;;;6.70;94.90;;;;;;2074428;28;20030;-90
2021/12/20 03:04:29;;;;;;;4.53;0.93;;;6.70;94.90;;;;;;2077188;28;20030;-91
2021/12/20 03:05:30;;;;;;;5.25;0.88;;;6.70;94.90;;;;;;2074169;28;20018;-91
2021/12/20 03:06:42;;;;;;;5.95;1.10;;;6.70;94.90;;;;;;2065892;28;20026;-91
2021/12/20 03:07:48;;;;;;;6.22;1.35;;;6.70;94.90;;;;;;2072276;28;20030;-91
2021/12/20 03:08:51;;;;;;;6.05;0.90;;;6.70;94.90;;;;;;2058152;28;20027;-92
2021/12/20 03:09:59;;;;;;;5.53;1.13;;;6.70;94.90;;;;;;2053066;28;20054;-90
2021/12/20 03:10:59;;;;;;;4.68;1.00;;;6.70;95.20;;;;;;2067204;28;20034;-92
2021/12/20 03:12:01;;;;;;;6.13;0.95;;;6.70;94.90;;;;;;2075921;28;20102;-91
2021/12/20 03:13:02;;;;;;;3.75;0.95;;;6.70;94.90;;;;;;2080307;28;20028;-91
2021/12/20 03:14:21;;;;;;;3.78;1.00;;;6.70;94.90;;;;;;2065759;28;20027;-91
2021/12/20 03:15:25;;;;;;;6.68;0.98;;;6.70;94.90;;;;;;2071010;28;20022;-91
2021/12/20 03:16:25;;;;;;;6.80;1.10;;;6.70;94.90;;;;;;2066056;28;20030;-92
2021/12/20 03:17:26;;;;;;;6.95;1.02;;;6.70;94.90;;;;;;2066357;28;20030;-92
2021/12/20 03:18:27;;;;;;;6.40;1.00;;;6.70;94.80;;;;;;2089224;28;20013;-91
2021/12/20 03:19:29;;;;;;;5.65;1.35;;;6.70;94.80;;;;;;2081514;28;20550;-92
2021/12/20 03:20:29;;;;;;;6.22;1.00;;;6.70;94.80;;;;;;2066924;28;20023;-91
2021/12/20 03:21:31;;;;;;;5.53;1.10;;;6.70;94.80;;;;;;2057690;28;20038;-91
2021/12/20 03:22:32;;;;;;;5.45;0.90;;;6.70;94.80;;;;;;2064040;28;20042;-91
2021/12/20 03:23:33;;;;;;;5.30;1.00;;;6.70;94.80;;;;;;2057931;28;20119;-92
2021/12/20 03:24:34;;;;;;;7.60;1.42;;;6.70;94.80;;;;;;2057947;28;20019;-92
2021/12/20 03:25:34;;;;;;;7.80;1.30;;;6.70;94.80;;;;;;2057097;28;20151;-91
2021/12/20 03:26:36;;;;;;;7.30;1.65;;;6.70;94.70;;;;;;2073880;28;20078;-92
2021/12/20 03:27:36;;;;;;;4.95;0.98;;;6.70;94.80;;;;;;2073265;28;20037;-92
2021/12/20 03:28:37;;;;;;;4.03;0.93;;;6.70;94.80;;;;;;2079444;28;20033;-92
2021/12/20 03:29:38;;;;;;;8.02;1.30;;;6.70;94.80;;;;;;2073891;28;20030;-91
2021/12/20 03:30:39;;;;;;;5.43;1.17;;;6.70;94.80;;;;;;2084635;28;20064;-92
2021/12/20 03:31:40;;;;;;;5.28;0.88;;;6.70;94.70;;;;;;2082323;28;20029;-92
2021/12/20 03:32:41;;;;;;;4.18;1.05;;;6.70;94.70;;;;;;2082370;28;20079;-91
2021/12/20 03:33:41;;;;;;;5.32;1.20;;;6.70;94.70;;;;;;2076652;28;20495;-91
2021/12/20 03:34:42;;;;;;;6.50;1.15;;;6.70;94.70;;;;;;2082174;28;20034;-92
2021/12/20 03:35:43;;;;;;;6.72;0.90;;;6.70;94.70;;;;;;2082370;28;20063;-92
2021/12/20 03:36:44;;;;;;;6.85;1.17;;;6.60;94.70;;;;;;2080575;28;20124;-92
2021/12/20 03:37:44;;;;;;;5.38;0.90;;;6.60;94.70;;;;;;2082194;28;20045;-92
2021/12/20 03:38:45;;;;;;;4.55;0.98;;;6.70;94.90;;;;;;2065335;28;20580;-92
2021/12/20 03:39:46;;;;;;;7.03;1.00;;;6.70;94.70;;;;;;2064876;28;20584;-91
2021/12/20 03:40:46;;;;;;;5.40;0.90;;;6.70;94.70;;;;;;2055960;28;20058;-91
2021/12/20 03:41:47;;;;;;;7.63;1.10;;;6.60;94.60;;;;;;2037255;29;20031;-92
2021/12/20 03:42:48;;;;;;;4.90;1.30;;;6.60;94.60;;;;;;2057706;28;20027;-91
2021/12/20 03:43:49;;;;;;;4.97;1.10;;;6.70;94.60;;;;;;2053753;28;20023;-92
2021/12/20 03:44:49;;;;;;;7.00;1.35;;;6.60;94.60;;;;;;2065105;28;20064;-91
2021/12/20 03:45:56;;;;;;;8.30;1.17;;;6.70;94.60;;;;;;2057559;28;20095;-91
2021/12/20 03:46:57;;;;;;;5.97;1.10;;;6.70;94.60;;;;;;2052157;28;20027;-91
2021/12/20 03:47:58;;;;;;;7.68;1.10;;;6.70;94.60;;;;;;2065876;28;20077;-91
2021/12/20 03:48:59;;;;;;;6.63;1.25;;;6.70;94.60;;;;;;2065539;28;20041;-92
2021/12/20 03:50:00;;;;;;;5.43;1.08;;;6.60;94.60;;;;;;2073041;28;20029;-90
2021/12/20 03:51:02;;;;;;;5.03;1.10;;;6.60;94.50;;;;;;2065364;28;20062;-91
2021/12/20 03:52:10;;;;;;;5.45;0.90;;;6.60;94.80;;;;;;2113784;27;20384;-89
2021/12/20 03:53:14;;;;;;;5.97;1.20;;;6.60;94.50;;;;;;2081217;28;20030;-90
2021/12/20 03:54:14;;;;;;;7.47;1.33;;;6.60;94.50;;;;;;2081272;28;20022;-90
2021/12/20 03:55:15;;;;;;;8.27;1.10;;;6.60;94.50;;;;;;2097024;28;20027;-90
2021/12/20 03:56:16;;;;;;;6.03;0.95;;;6.60;94.50;;;;;;2096502;28;20490;-90
2021/12/20 03:57:17;;;;;;;7.50;1.15;;;6.60;94.50;;;;;;2080160;28;20034;-90
2021/12/20 03:58:19;;;;;;;6.40;1.10;;;6.60;94.50;;;;;;2084493;28;20533;-90
2021/12/20 03:59:53;;;;;;;4.45;0.77;;;6.50;94.50;;;;;;2084152;28;20060;-90
2021/12/20 04:01:56;;;;;;;5.63;1.02;;;6.60;94.50;;;;;;2085935;28;20120;-90
2021/12/20 04:04:34;;;;;;;5.85;1.13;;;6.50;94.50;;;;;;2062043;28;20035;-91
2021/12/20 05:27:28;;;;;;;3.13;0.60;;;6.20;94.10;;;;;;2088549;28;20511;-92
2021/12/20 05:29:50;;;;;;;3.25;0.55;;;6.20;94.10;;;;;;2056796;28;20066;-90
2021/12/20 05:30:52;;;;;;;5.47;0.70;;;6.20;94.10;;;;;;2050657;28;20035;-91
2021/12/20 05:31:53;;;;;;;4.72;0.77;;;6.20;94.10;;;;;;2041278;29;20103;-91
2021/12/20 05:32:55;;;;;;;4.88;0.90;;;6.20;94.10;;;;;;2041886;29;20486;-90
2021/12/20 05:33:55;;;;;;;7.45;0.88;;;6.20;94.00;;;;;;2041008;29;20044;-92
2021/12/20 05:34:56;;;;;;;4.68;0.80;;;6.20;94.00;;;;;;2051557;29;20031;-91
2021/12/20 05:35:57;;;;;;;4.88;0.70;;;6.20;94.30;;;;;;2041308;29;20074;-90
2021/12/20 05:36:58;;;;;;;3.38;0.70;;;6.20;94.00;;;;;;2042510;29;20533;-90
2021/12/20 05:37:59;;;;;;;5.78;0.90;;;6.20;94.00;;;;;;2044383;28;20042;-91
2021/12/20 05:39:00;;;;;;;5.18;1.17;;;6.20;94.00;;;;;;2047528;28;20043;-91
2021/12/20 05:40:00;;;;;;;5.20;0.95;;;6.20;94.00;;;;;;2041472;29;20051;-92
2021/12/20 05:41:01;;;;;;;2.83;0.73;;;6.20;94.00;;;;;;2042083;29;20543;-92
2021/12/20 05:42:04;;;;;;;4.22;0.80;;;6.20;94.00;;;;;;2043045;29;20490;-91
2021/12/20 05:43:05;;;;;;;3.40;0.77;;;6.20;94.00;;;;;;2035061;29;20044;-92
2021/12/20 05:44:06;;;;;;;6.32;0.95;;;6.20;94.00;;;;;;2034636;29;20036;-91
2021/12/20 05:45:08;;;;;;;3.70;0.68;;;6.20;94.00;;;;;;2037778;29;20039;-91
2021/12/20 05:46:09;;;;;;;5.15;1.00;;;6.20;94.00;;;;;;2041812;29;20088;-91
2021/12/20 05:47:10;;;;;;;4.75;0.77;;;6.20;94.00;;;;;;2041812;29;20039;-93
2021/12/20 05:48:11;;;;;;;6.03;1.15;;;6.20;94.00;;;;;;2049656;29;20054;-93
2021/12/20 05:49:12;;;;;;;5.72;1.23;;;6.20;94.00;;;;;;2042208;29;20547;-92
2021/12/20 05:50:17;;;;;;;4.65;0.75;;;6.20;94.00;;;;;;2034000;29;20035;-91
2021/12/20 05:51:19;;;;;;;5.43;0.77;;;6.20;94.00;;;;;;2028068;29;20068;-93
2021/12/20 05:56:51;;;;;;;3.53;0.77;;;6.20;94.00;;;;;;2033621;29;20032;-95
2021/12/20 06:46:00;;;;;;;2.38;0.50;;;5.90;93.80;;;;;;2065195;28;20058;-88
2021/12/20 06:47:31;;;;;;;4.93;0.85;;;5.90;93.80;;;;;;2064240;28;20069;-89
2021/12/20 06:51:46;;;;;;;2.33;0.60;;;5.90;93.70;;;;;;2061544;28;20097;-89
2021/12/20 06:54:14;;;;;;;2.35;0.50;;;5.90;93.70;;;;;;2069890;28;20507;-89
2021/12/20 07:11:09;;;;;;;4.05;0.70;;;5.90;93.70;;;;;;2052510;28;20048;-91
2021/12/20 07:12:10;;;;;;;6.30;0.70;;;5.90;93.70;;;;;;2057268;28;20146;-89
2021/12/20 07:13:11;;;;;;;6.70;0.80;;;5.90;93.70;;;;;;2048921;28;20027;-91
2021/12/20 07:14:12;;;;;;;3.15;0.70;;;5.90;93.70;;;;;;2049203;29;20502;-90
2021/12/20 07:15:14;;;;;;;2.92;0.70;;;5.90;93.70;;;;;;2048562;28;20046;-90
2021/12/20 07:16:15;;;;;;;6.80;1.00;;;5.90;93.70;;;;;;2048121;29;20043;-90
2021/12/20 07:17:17;;;;;;;6.78;1.10;;;5.90;93.80;;;;;;2041586;29;20124;-90
2021/12/20 07:18:18;;;;;;;4.57;0.80;;;5.90;93.80;;;;;;2048423;28;20027;-90
2021/12/20 07:19:19;;;;;;;3.67;0.65;;;5.90;93.80;;;;;;2056766;28;20034;-89
2021/12/20 07:20:19;;;;;;;3.90;0.68;;;5.90;93.80;;;;;;2057388;28;20121;-89
2021/12/20 07:21:20;;;;;;;4.18;0.80;;;6.00;93.80;;;;;;2041491;29;20102;-90
2021/12/20 07:22:21;;;;;;;5.40;1.10;;;5.90;93.80;;;;;;2046896;28;20062;-89
2021/12/20 07:23:22;;;;;;;5.05;0.90;;;6.00;93.80;;;;;;2049128;28;20170;-89
2021/12/20 07:24:23;;;;;;;4.60;1.00;;;6.00;93.80;;;;;;2041891;28;20043;-90
2021/12/20 07:25:24;;;;;;;7.30;1.10;;;5.90;93.80;;;;;;2049054;28;20383;-90
2021/12/20 07:26:25;;;;;;;3.88;0.90;;;6.00;93.80;;;;;;2041022;29;20055;-89
2021/12/20 07:27:26;;;;;;;4.57;1.10;;;6.00;94.10;;;;;;2041320;28;20397;-89
2021/12/20 07:28:27;;;;;;;4.97;0.95;;;6.00;93.80;;;;;;2040660;29;20048;-89
2021/12/20 07:29:27;;;;;;;3.35;0.82;;;6.00;93.80;;;;;;2033024;29;20036;-89
2021/12/20 07:30:28;;;;;;;5.55;1.38;;;6.00;93.80;;;;;;2048220;28;20546;-90
2021/12/20 07:31:29;;;;;;;5.68;0.98;;;6.00;93.80;;;;;;2043419;29;20050;-89
2021/12/20 07:32:30;;;;;;;5.15;0.98;;;6.00;93.80;;;;;;2045207;29;20039;-89
2021/12/20 07:33:30;;;;;;;7.22;1.00;;;6.00;93.70;;;;;;2041191;29;20433;-89
2021/12/20 07:34:31;;;;;;;5.50;1.10;;;6.00;93.70;;;;;;2041256;29;20111;-90
2021/12/20 07:35:31;;;;;;;3.65;0.70;;;6.00;93.70;;;;;;2040175;29;20482;-89
2021/12/20 07:36:32;;;;;;;4.47;1.13;;;6.00;93.70;;;;;;2056409;28;20383;-90
2021/12/20 07:37:33;;;;;;;4.13;0.95;;;6.00;93.70;;;;;;2053231;28;20437;-89
2021/12/20 07:38:35;;;;;;;3.60;0.70;;;6.00;93.70;;;;;;2048542;29;20185;-88
2021/12/20 07:39:35;;;;;;;2.85;0.80;;;6.00;93.70;;;;;;2055484;28;20031;-90
2021/12/20 07:40:36;;;;;;;5.75;1.02;;;6.00;93.90;;;;;;2054213;28;20560;-89
2021/12/20 07:41:37;;;;;;;5.97;1.10;;;6.00;93.70;;;;;;2045779;29;20476;-90
2021/12/20 07:42:38;;;;;;;6.25;1.10;;;6.00;93.70;;;;;;2049048;29;20033;-89
2021/12/20 07:43:39;;;;;;;7.25;1.13;;;6.00;93.70;;;;;;2041339;28;20035;-88
2021/12/20 07:44:39;;;;;;;6.43;1.13;;;6.00;93.70;;;;;;2047960;29;20036;-90
2021/12/20 07:45:41;;;;;;;5.15;0.90;;;6.00;93.70;;;;;;2056241;28;20039;-91
2021/12/20 07:46:42;;;;;;;3.38;0.80;;;6.10;93.70;;;;;;2056920;28;20090;-91
2021/12/20 07:47:43;;;;;;;5.13;0.90;;;6.10;93.70;;;;;;2041539;29;20502;-91
2021/12/20 07:48:43;;;;;;;5.50;0.90;;;6.10;93.70;;;;;;2038155;29;20469;-91
2021/12/20 07:49:44;;;;;;;4.20;0.85;;;6.10;93.70;;;;;;2048653;29;20093;-91
2021/12/20 07:50:46;;;;;;;3.90;0.80;;;6.00;93.70;;;;;;2049571;29;20039;-91
2021/12/20 07:51:51;;;;;;;3.90;0.77;;;6.10;93.70;;;;;;2040841;28;20485;-91
2021/12/20 07:52:52;;;;;;;2.80;0.85;;;6.10;93.70;;;;;;2041837;29;20571;-91
2021/12/20 07:53:53;;;;;;;4.13;0.80;;;6.00;93.60;;;;;;2040337;29;20039;-90
2021/12/20 07:54:53;;;;;;;4.07;0.80;;;6.10;93.70;;;;;;2052593;28;20105;-91
2021/12/20 07:55:54;;;;;;;4.45;0.80;;;6.00;93.60;;;;;;2047873;28;20799;-90
2021/12/20 07:56:55;;;;;;;7.10;1.15;;;6.00;93.60;;;;;;2047893;29;20032;-90
2021/12/20 07:57:56;;;;;;;4.22;0.90;;;6.00;93.60;;;;;;2040893;29;20040;-90
2021/12/20 07:58:56;;;;;;;4.38;0.80;;;6.00;93.60;;;;;;2033865;29;20566;-91
2021/12/20 07:59:57;;;;;;;4.85;0.90;;;6.00;93.60;;;;;;2041499;29;20048;-89
2021/12/20 08:00:59;;;;;;;4.82;1.08;;;6.00;93.60;;;;;;2049702;28;20039;-90
2021/12/20 08:02:00;;;;;;;4.88;0.80;;;6.00;93.60;;;;;;2048409;29;20032;-90
2021/12/20 08:03:01;;;;;;;6.93;1.23;;;6.00;93.60;;;;;;2032852;29;20036;-90
2021/12/20 08:04:04;;;;;;;2.30;0.60;;;6.00;93.60;;;;;;2050285;28;20032;-90
2021/12/20 08:05:05;;;;;;;3.45;0.88;;;6.00;93.60;;;;;;2049311;28;20505;-90
2021/12/20 08:06:06;;;;;;;6.53;1.85;;;6.00;93.60;;;;;;2054117;28;20035;-90
2021/12/20 08:07:07;;;;;;;7.57;2.50;;;6.00;93.50;;;;;;2048752;29;20040;-89
2021/12/20 08:08:08;;;;;;;7.65;2.17;;;6.00;93.50;;;;;;2048781;29;20122;-90
2021/12/20 08:09:10;;;;;;;9.20;2.65;;;6.00;93.50;;;;;;2049068;29;20125;-89
2021/12/20 08:10:11;;;;;;;6.90;2.78;;;6.00;93.50;;;;;;2040646;28;20028;-89
2021/12/20 08:11:12;;;;;;;11.82;2.72;;;6.00;93.50;;;;;;2055669;28;20059;-89
2021/12/20 08:12:12;;;;;;;10.02;3.13;;;6.00;93.50;;;;;;2057362;28;20178;-89
2021/12/20 08:13:15;;;;;;;6.03;2.25;;;6.00;93.50;;;;;;2056386;28;20050;-90
2021/12/20 08:14:16;;;;;;;6.88;2.15;;;6.00;93.40;;;;;;2059046;28;20038;-90
2021/12/20 08:15:17;;;;;;;6.68;2.35;;;6.00;93.50;;;;;;2075165;28;20042;-90
2021/12/20 08:16:19;;;;;;;8.25;2.30;;;6.00;93.50;;;;;;2065422;28;20040;-90
2021/12/20 08:17:20;;;;;;;5.97;1.90;;;6.00;93.50;;;;;;2057555;28;20027;-90